createdAt,value
2018-04-15T00:00:27.731Z,886.93
2018-04-15T00:01:27.725Z,886.87
2018-04-15T00:02:27.709Z,886.87
2018-04-15T00:03:27.701Z,886.87
2018-04-15T00:04:27.691Z,886.89
2018-04-15T00:05:27.671Z,886.87
2018-04-15T00:06:27.717Z,886.90
2018-04-15T00:07:27.650Z,886.89
2018-04-15T00:08:27.645Z,886.89
2018-04-15T00:09:27.622Z,886.85
2018-04-15T00:10:27.616Z,886.87
2018-04-15T00:11:27.614Z,886.86
2018-04-15T00:12:27.597Z,886.87
2018-04-15T00:13:27.587Z,886.92
2018-04-15T00:14:27.574Z,886.99
2018-04-15T00:15:27.569Z,887.05
2018-04-15T00:16:27.560Z,887.13
2018-04-15T00:17:27.545Z,887.16
2018-04-15T00:18:27.532Z,887.15
2018-04-15T00:19:27.519Z,887.16
2018-04-15T00:20:27.511Z,887.20
2018-04-15T00:21:27.493Z,887.18
2018-04-15T00:22:27.495Z,887.22
2018-04-15T00:23:27.475Z,887.27
2018-04-15T00:24:27.468Z,887.26
2018-04-15T00:25:27.459Z,887.30
2018-04-15T00:26:27.445Z,887.30
2018-04-15T00:27:27.433Z,887.31
2018-04-15T00:28:27.432Z,887.34
2018-04-15T00:29:27.409Z,887.36
2018-04-15T00:30:27.397Z,887.33
2018-04-15T00:31:27.388Z,887.32
2018-04-15T00:32:27.379Z,887.32
2018-04-15T00:33:27.373Z,887.25
2018-04-15T00:34:27.354Z,887.29
2018-04-15T00:35:27.343Z,887.27
2018-04-15T00:36:27.335Z,887.22
2018-04-15T00:37:27.317Z,887.22
2018-04-15T00:38:27.311Z,887.18
2018-04-15T00:39:27.306Z,887.17
2018-04-15T00:40:27.289Z,887.19
2018-04-15T00:41:27.280Z,887.23
2018-04-15T00:42:27.274Z,887.24
2018-04-15T00:43:27.264Z,887.25
2018-04-15T00:44:27.247Z,887.24
2018-04-15T00:45:27.234Z,887.27
2018-04-15T00:46:27.222Z,887.29
2018-04-15T00:47:27.215Z,887.27
2018-04-15T00:48:27.257Z,887.23
2018-04-15T00:49:27.187Z,887.21
2018-04-15T00:50:27.177Z,887.18
2018-04-15T00:51:27.162Z,887.16
2018-04-15T00:52:27.156Z,887.14
2018-04-15T00:53:27.144Z,887.08
2018-04-15T00:54:27.134Z,887.03
2018-04-15T00:55:27.115Z,887.02
2018-04-15T00:56:27.110Z,887.01
2018-04-15T00:57:27.100Z,887.00
2018-04-15T00:58:27.084Z,886.97
2018-04-15T00:59:27.081Z,886.98
2018-04-15T01:00:27.064Z,886.94
2018-04-15T01:01:27.056Z,886.90
2018-04-15T01:02:27.045Z,886.90
2018-04-15T01:03:27.033Z,886.86
2018-04-15T01:04:27.024Z,886.88
2018-04-15T01:05:27.013Z,886.83
2018-04-15T01:06:27.009Z,886.83
2018-04-15T01:07:26.986Z,886.84
2018-04-15T01:08:26.978Z,886.83
2018-04-15T01:09:26.970Z,886.80
2018-04-15T01:10:26.954Z,886.86
2018-04-15T01:11:26.939Z,886.85
2018-04-15T01:12:26.929Z,886.85
2018-04-15T01:13:26.917Z,886.81
2018-04-15T01:14:26.909Z,886.83
2018-04-15T01:15:26.895Z,886.80
2018-04-15T01:16:26.889Z,886.86
2018-04-15T01:17:26.870Z,886.83
2018-04-15T01:18:26.855Z,886.84
2018-04-15T01:19:26.852Z,886.85
2018-04-15T01:20:26.837Z,886.85
2018-04-15T01:21:26.826Z,886.84
2018-04-15T01:22:26.818Z,886.78
2018-04-15T01:23:26.811Z,886.77
2018-04-15T01:24:26.797Z,886.76
2018-04-15T01:25:26.785Z,886.68
2018-04-15T01:26:26.769Z,886.66
2018-04-15T01:27:26.763Z,886.65
2018-04-15T01:28:26.750Z,886.71
2018-04-15T01:29:26.740Z,886.67
2018-04-15T01:30:26.728Z,886.68
2018-04-15T01:31:26.715Z,886.68
2018-04-15T01:32:26.706Z,886.72
2018-04-15T01:33:26.691Z,886.75
2018-04-15T01:34:26.681Z,886.75
2018-04-15T01:35:26.677Z,886.77
2018-04-15T01:36:26.662Z,886.74
2018-04-15T01:37:26.646Z,886.76
2018-04-15T01:38:26.640Z,886.72
2018-04-15T01:39:26.624Z,886.69
2018-04-15T01:40:26.610Z,886.68
2018-04-15T01:41:26.606Z,886.67
2018-04-15T01:42:26.596Z,886.60
2018-04-15T01:43:26.578Z,886.58
2018-04-15T01:44:26.572Z,886.59
2018-04-15T01:45:26.550Z,886.60
2018-04-15T01:46:26.561Z,886.63
2018-04-15T01:47:26.534Z,886.61
2018-04-15T01:48:26.518Z,886.61
2018-04-15T01:49:26.514Z,886.61
2018-04-15T01:50:26.500Z,886.61
2018-04-15T01:51:26.489Z,886.63
2018-04-15T01:52:26.481Z,886.62
2018-04-15T01:53:26.469Z,886.60
2018-04-15T01:54:26.458Z,886.63
2018-04-15T01:55:26.442Z,886.61
2018-04-15T01:56:26.430Z,886.61
2018-04-15T01:57:26.416Z,886.59
2018-04-15T01:58:26.410Z,886.59
2018-04-15T01:59:26.391Z,886.62
2018-04-15T02:00:26.383Z,886.59
2018-04-15T02:01:26.370Z,886.59
2018-04-15T02:02:26.365Z,886.59
2018-04-15T02:03:26.354Z,886.59
2018-04-15T02:04:26.343Z,886.59
2018-04-15T02:05:26.333Z,886.58
2018-04-15T02:06:26.313Z,886.55
2018-04-15T02:07:26.304Z,886.57
2018-04-15T02:08:26.292Z,886.59
2018-04-15T02:09:26.276Z,886.54
2018-04-15T02:10:26.264Z,886.55
2018-04-15T02:11:26.261Z,886.52
2018-04-15T02:12:26.250Z,886.56
2018-04-15T02:13:26.235Z,886.56
2018-04-15T02:14:26.219Z,886.58
2018-04-15T02:15:26.217Z,886.52
2018-04-15T02:16:26.202Z,886.50
2018-04-15T02:17:26.188Z,886.51
2018-04-15T02:18:26.176Z,886.47
2018-04-15T02:19:26.166Z,886.48
2018-04-15T02:20:26.157Z,886.47
2018-04-15T02:21:26.142Z,886.50
2018-04-15T02:22:26.151Z,886.48
2018-04-15T02:23:26.119Z,886.49
2018-04-15T02:24:26.109Z,886.45
2018-04-15T02:25:26.099Z,886.41
2018-04-15T02:26:26.081Z,886.38
2018-04-15T02:27:26.078Z,886.40
2018-04-15T02:28:26.065Z,886.40
2018-04-15T02:29:26.057Z,886.43
2018-04-15T02:30:26.038Z,886.34
2018-04-15T02:31:26.028Z,886.34
2018-04-15T02:32:26.014Z,886.35
2018-04-15T02:33:26.010Z,886.32
2018-04-15T02:34:25.993Z,886.31
2018-04-15T02:35:25.976Z,886.36
2018-04-15T02:36:25.967Z,886.32
2018-04-15T02:37:25.967Z,886.26
2018-04-15T02:38:25.944Z,886.23
2018-04-15T02:39:25.935Z,886.23
2018-04-15T02:40:25.927Z,886.17
2018-04-15T02:41:25.912Z,886.16
2018-04-15T02:42:25.894Z,886.21
2018-04-15T02:43:25.893Z,886.21
2018-04-15T02:44:25.890Z,886.20
2018-04-15T02:45:25.862Z,886.17
2018-04-15T02:46:25.854Z,886.18
2018-04-15T02:47:25.840Z,886.17
2018-04-15T02:48:25.837Z,886.18
2018-04-15T02:49:25.816Z,886.15
2018-04-15T02:50:25.810Z,886.14
2018-04-15T02:51:25.794Z,886.14
2018-04-15T02:52:25.783Z,886.14
2018-04-15T02:53:25.771Z,886.16
2018-04-15T02:54:25.783Z,886.11
2018-04-15T02:55:25.755Z,886.14
2018-04-15T02:56:25.742Z,886.13
2018-04-15T02:57:25.727Z,886.11
2018-04-15T02:58:25.714Z,886.09
2018-04-15T02:59:25.704Z,886.06
2018-04-15T03:00:25.686Z,886.05
2018-04-15T03:01:25.682Z,886.02
2018-04-15T03:02:25.666Z,886.02
2018-04-15T03:03:25.663Z,886.05
2018-04-15T03:04:25.645Z,886.04
2018-04-15T03:05:25.678Z,886.00
2018-04-15T03:06:25.617Z,885.96
2018-04-15T03:07:25.613Z,885.96
2018-04-15T03:08:25.598Z,885.99
2018-04-15T03:09:25.593Z,885.96
2018-04-15T03:10:25.568Z,886.03
2018-04-15T03:11:25.555Z,886.02
2018-04-15T03:12:25.548Z,886.01
2018-04-15T03:13:25.547Z,886.04
2018-04-15T03:14:25.529Z,886.01
2018-04-15T03:15:25.514Z,886.06
2018-04-15T03:16:25.496Z,886.02
2018-04-15T03:17:25.492Z,886.01
2018-04-15T03:18:25.479Z,885.94
2018-04-15T03:19:25.467Z,885.95
2018-04-15T03:20:25.455Z,885.96
2018-04-15T03:21:25.454Z,885.96
2018-04-15T03:22:25.436Z,885.92
2018-04-15T03:23:25.428Z,885.94
2018-04-15T03:24:25.406Z,885.90
2018-04-15T03:25:25.397Z,885.91
2018-04-15T03:26:25.387Z,885.94
2018-04-15T03:27:25.367Z,885.95
2018-04-15T03:28:25.358Z,885.91
2018-04-15T03:29:25.351Z,885.90
2018-04-15T03:30:25.328Z,885.94
2018-04-15T03:31:25.317Z,885.89
2018-04-15T03:32:25.308Z,885.89
2018-04-15T03:33:25.302Z,885.90
2018-04-15T03:34:25.283Z,885.84
2018-04-15T03:35:25.273Z,885.83
2018-04-15T03:36:25.268Z,885.85
2018-04-15T03:37:25.249Z,885.80
2018-04-15T03:38:25.239Z,885.83
2018-04-15T03:39:25.231Z,885.84
2018-04-15T03:40:25.213Z,885.82
2018-04-15T03:41:25.202Z,885.79
2018-04-15T03:42:25.189Z,885.80
2018-04-15T03:43:25.177Z,885.81
2018-04-15T03:44:25.162Z,885.83
2018-04-15T03:45:25.158Z,885.76
2018-04-15T03:46:25.138Z,885.75
2018-04-15T03:47:25.130Z,885.70
2018-04-15T03:48:25.120Z,885.71
2018-04-15T03:49:25.104Z,885.71
2018-04-15T03:50:25.095Z,885.66
2018-04-15T03:51:25.077Z,885.67
2018-04-15T03:52:25.072Z,885.65
2018-04-15T03:53:25.061Z,885.70
2018-04-15T03:54:25.052Z,885.69
2018-04-15T03:55:25.037Z,885.66
2018-04-15T03:56:25.021Z,885.68
2018-04-15T03:57:25.012Z,885.71
2018-04-15T03:58:25.010Z,885.70
2018-04-15T03:59:24.982Z,885.69
2018-04-15T04:00:24.972Z,885.72
2018-04-15T04:01:24.962Z,885.72
2018-04-15T04:02:24.951Z,885.73
2018-04-15T04:03:24.937Z,885.74
2018-04-15T04:04:24.944Z,885.72
2018-04-15T04:05:24.916Z,885.71
2018-04-15T04:06:24.917Z,885.72
2018-04-15T04:07:24.892Z,885.73
2018-04-15T04:08:24.882Z,885.73
2018-04-15T04:09:24.872Z,885.71
2018-04-15T04:10:24.855Z,885.70
2018-04-15T04:11:25.814Z,885.72
2018-04-15T04:12:24.834Z,885.70
2018-04-15T04:13:24.825Z,885.73
2018-04-15T04:14:24.825Z,885.69
2018-04-15T04:15:24.799Z,885.65
2018-04-15T04:16:24.790Z,885.64
2018-04-15T04:17:24.773Z,885.62
2018-04-15T04:18:24.765Z,885.61
2018-04-15T04:19:24.747Z,885.60
2018-04-15T04:20:24.770Z,885.62
2018-04-15T04:21:24.726Z,885.59
2018-04-15T04:22:24.718Z,885.55
2018-04-15T04:23:24.708Z,885.54
2018-04-15T04:24:24.702Z,885.55
2018-04-15T04:25:24.683Z,885.54
2018-04-15T04:26:24.666Z,885.54
2018-04-15T04:27:24.659Z,885.57
2018-04-15T04:28:24.645Z,885.57
2018-04-15T04:29:24.637Z,885.55
2018-04-15T04:30:24.622Z,885.55
2018-04-15T04:31:24.607Z,885.53
2018-04-15T04:32:24.599Z,885.49
2018-04-15T04:33:24.586Z,885.49
2018-04-15T04:34:24.578Z,885.47
2018-04-15T04:35:24.565Z,885.52
2018-04-15T04:36:24.552Z,885.51
2018-04-15T04:37:24.541Z,885.49
2018-04-15T04:38:24.531Z,885.49
2018-04-15T04:39:24.521Z,885.50
2018-04-15T04:40:24.505Z,885.47
2018-04-15T04:41:24.501Z,885.49
2018-04-15T04:42:24.488Z,885.45
2018-04-15T04:43:24.473Z,885.47
2018-04-15T04:44:24.462Z,885.48
2018-04-15T04:45:24.447Z,885.55
2018-04-15T04:46:24.430Z,885.51
2018-04-15T04:47:24.416Z,885.51
2018-04-15T04:48:24.412Z,885.50
2018-04-15T04:49:24.397Z,885.52
2018-04-15T04:50:24.388Z,885.49
2018-04-15T04:51:24.377Z,885.49
2018-04-15T04:52:24.361Z,885.53
2018-04-15T04:53:24.354Z,885.49
2018-04-15T04:54:24.339Z,885.52
2018-04-15T04:55:24.326Z,885.48
2018-04-15T04:56:24.314Z,885.48
2018-04-15T04:57:24.308Z,885.50
2018-04-15T04:58:24.290Z,885.49
2018-04-15T04:59:24.283Z,885.51
2018-04-15T05:00:24.266Z,885.51
2018-04-15T05:01:24.265Z,885.50
2018-04-15T05:02:24.250Z,885.52
2018-04-15T05:03:24.231Z,885.49
2018-04-15T05:04:24.220Z,885.49
2018-04-15T05:05:24.204Z,885.49
2018-04-15T05:06:24.196Z,885.47
2018-04-15T05:07:24.180Z,885.46
2018-04-15T05:08:24.170Z,885.45
2018-04-15T05:09:24.159Z,885.48
2018-04-15T05:10:24.148Z,885.46
2018-04-15T05:11:24.137Z,885.45
2018-04-15T05:12:24.127Z,885.46
2018-04-15T05:13:24.115Z,885.45
2018-04-15T05:14:24.098Z,885.43
2018-04-15T05:15:24.089Z,885.46
2018-04-15T05:16:24.074Z,885.43
2018-04-15T05:17:24.065Z,885.46
2018-04-15T05:18:24.053Z,885.42
2018-04-15T05:19:24.040Z,885.45
2018-04-15T05:20:24.033Z,885.42
2018-04-15T05:21:24.017Z,885.40
2018-04-15T05:22:24.008Z,885.43
2018-04-15T05:23:23.991Z,885.41
2018-04-15T05:24:24.013Z,885.42
2018-04-15T05:25:23.974Z,885.46
2018-04-15T05:26:23.959Z,885.45
2018-04-15T05:27:23.946Z,885.47
2018-04-15T05:28:23.940Z,885.43
2018-04-15T05:29:23.925Z,885.45
2018-04-15T05:30:23.915Z,885.46
2018-04-15T05:31:23.900Z,885.47
2018-04-15T05:32:23.888Z,885.47
2018-04-15T05:33:23.875Z,885.50
2018-04-15T05:34:23.867Z,885.45
2018-04-15T05:35:23.856Z,885.44
2018-04-15T05:36:23.840Z,885.44
2018-04-15T05:37:23.833Z,885.43
2018-04-15T05:38:23.820Z,885.43
2018-04-15T05:39:23.808Z,885.41
2018-04-15T05:40:23.794Z,885.44
2018-04-15T05:41:23.784Z,885.41
2018-04-15T05:42:23.775Z,885.40
2018-04-15T05:43:23.757Z,885.37
2018-04-15T05:44:23.750Z,885.40
2018-04-15T05:45:23.737Z,885.38
2018-04-15T05:46:23.725Z,885.34
2018-04-15T05:47:23.724Z,885.36
2018-04-15T05:48:23.699Z,885.36
2018-04-15T05:49:23.688Z,885.31
2018-04-15T05:50:23.680Z,885.30
2018-04-15T05:51:23.668Z,885.30
2018-04-15T05:52:23.660Z,885.28
2018-04-15T05:53:23.646Z,885.23
2018-04-15T05:54:23.633Z,885.22
2018-04-15T05:55:23.622Z,885.19
2018-04-15T05:56:23.608Z,885.20
2018-04-15T05:57:23.594Z,885.21
2018-04-15T05:58:23.586Z,885.14
2018-04-15T05:59:23.570Z,885.13
2018-04-15T06:00:23.587Z,885.14
2018-04-15T06:01:23.557Z,885.11
2018-04-15T06:02:23.541Z,885.14
2018-04-15T06:03:23.523Z,885.07
2018-04-15T06:04:23.516Z,885.09
2018-04-15T06:05:23.511Z,885.09
2018-04-15T06:06:23.492Z,885.07
2018-04-15T06:07:23.476Z,885.07
2018-04-15T06:08:23.486Z,885.08
2018-04-15T06:09:23.464Z,885.07
2018-04-15T06:10:23.447Z,885.08
2018-04-15T06:11:23.439Z,885.12
2018-04-15T06:12:23.422Z,885.10
2018-04-15T06:13:23.416Z,885.06
2018-04-15T06:14:23.407Z,885.07
2018-04-15T06:15:23.392Z,885.06
2018-04-15T06:16:23.374Z,885.03
2018-04-15T06:17:23.364Z,884.97
2018-04-15T06:18:23.357Z,885.01
2018-04-15T06:19:23.348Z,884.95
2018-04-15T06:20:23.333Z,884.98
2018-04-15T06:21:23.327Z,884.97
2018-04-15T06:22:23.308Z,884.95
2018-04-15T06:23:23.299Z,884.91
2018-04-15T06:24:23.291Z,884.89
2018-04-15T06:25:23.283Z,884.93
2018-04-15T06:26:23.265Z,884.90
2018-04-15T06:27:23.253Z,884.87
2018-04-15T06:28:23.241Z,884.88
2018-04-15T06:29:23.233Z,884.86
2018-04-15T06:30:23.216Z,884.84
2018-04-15T06:31:23.201Z,884.83
2018-04-15T06:32:23.194Z,884.84
2018-04-15T06:33:23.181Z,884.81
2018-04-15T06:34:23.172Z,884.82
2018-04-15T06:35:23.163Z,884.80
2018-04-15T06:36:23.147Z,884.78
2018-04-15T06:37:23.144Z,884.80
2018-04-15T06:38:23.119Z,884.81
2018-04-15T06:39:23.121Z,884.79
2018-04-15T06:40:23.103Z,884.81
2018-04-15T06:41:23.093Z,884.75
2018-04-15T06:42:23.077Z,884.72
2018-04-15T06:43:23.073Z,884.71
2018-04-15T06:44:23.052Z,884.69
2018-04-15T06:45:23.055Z,884.72
2018-04-15T06:46:23.032Z,884.71
2018-04-15T06:47:23.028Z,884.66
2018-04-15T06:48:23.014Z,884.65
2018-04-15T06:49:23.000Z,884.65
2018-04-15T06:50:22.994Z,884.60
2018-04-15T06:51:22.977Z,884.61
2018-04-15T06:52:22.966Z,884.59
2018-04-15T06:53:22.954Z,884.60
2018-04-15T06:54:22.943Z,884.59
2018-04-15T06:55:22.931Z,884.54
2018-04-15T06:56:22.930Z,884.54
2018-04-15T06:57:22.916Z,884.57
2018-04-15T06:58:22.897Z,884.53
2018-04-15T06:59:22.893Z,884.50
2018-04-15T07:00:22.881Z,884.49
2018-04-15T07:01:22.863Z,884.51
2018-04-15T07:02:22.860Z,884.47
2018-04-15T07:03:22.841Z,884.46
2018-04-15T07:04:22.840Z,884.43
2018-04-15T07:05:22.820Z,884.44
2018-04-15T07:06:22.814Z,884.41
2018-04-15T07:07:22.805Z,884.38
2018-04-15T07:08:22.794Z,884.35
2018-04-15T07:09:22.784Z,884.36
2018-04-15T07:10:22.771Z,884.33
2018-04-15T07:11:22.757Z,884.31
2018-04-15T07:12:22.790Z,884.33
2018-04-15T07:13:22.735Z,884.29
2018-04-15T07:14:22.726Z,884.28
2018-04-15T07:15:22.716Z,884.29
2018-04-15T07:16:22.710Z,884.24
2018-04-15T07:17:22.700Z,884.21
2018-04-15T07:18:22.681Z,884.20
2018-04-15T07:19:22.669Z,884.20
2018-04-15T07:20:22.664Z,884.18
2018-04-15T07:21:22.653Z,884.14
2018-04-15T07:22:22.643Z,884.16
2018-04-15T07:23:22.635Z,884.21
2018-04-15T07:24:22.618Z,884.18
2018-04-15T07:25:22.613Z,884.21
2018-04-15T07:26:22.598Z,884.26
2018-04-15T07:27:22.593Z,884.23
2018-04-15T07:28:22.580Z,884.20
2018-04-15T07:29:22.566Z,884.23
2018-04-15T07:30:22.610Z,884.21
2018-04-15T07:31:22.548Z,884.20
2018-04-15T07:32:22.541Z,884.18
2018-04-15T07:33:22.533Z,884.17
2018-04-15T07:34:22.520Z,884.21
2018-04-15T07:35:22.512Z,884.23
2018-04-15T07:36:22.511Z,884.22
2018-04-15T07:37:22.480Z,884.20
2018-04-15T07:38:22.472Z,884.17
2018-04-15T07:39:22.464Z,884.20
2018-04-15T07:40:22.454Z,884.16
2018-04-15T07:41:22.447Z,884.13
2018-04-15T07:42:22.436Z,884.15
2018-04-15T07:43:22.434Z,884.17
2018-04-15T07:44:22.421Z,884.16
2018-04-15T07:45:22.406Z,884.16
2018-04-15T07:46:22.393Z,884.13
2018-04-15T07:47:22.378Z,884.17
2018-04-15T07:48:22.374Z,884.14
2018-04-15T07:49:22.360Z,884.14
2018-04-15T07:50:22.353Z,884.12
2018-04-15T07:51:22.341Z,884.14
2018-04-15T07:52:22.330Z,884.14
2018-04-15T07:53:22.322Z,884.14
2018-04-15T07:54:22.308Z,884.15
2018-04-15T07:55:22.299Z,884.15
2018-04-15T07:56:22.290Z,884.16
2018-04-15T07:57:22.279Z,884.14
2018-04-15T07:58:22.269Z,884.13
2018-04-15T07:59:22.259Z,884.14
2018-04-15T08:00:22.251Z,884.15
2018-04-15T08:01:22.234Z,884.15
2018-04-15T08:02:22.229Z,884.18
2018-04-15T08:03:22.221Z,884.18
2018-04-15T08:04:22.204Z,884.17
2018-04-15T08:05:22.196Z,884.18
2018-04-15T08:06:22.191Z,884.18
2018-04-15T08:07:22.175Z,884.20
2018-04-15T08:08:22.167Z,884.19
2018-04-15T08:09:22.150Z,884.16
2018-04-15T08:10:22.147Z,884.19
2018-04-15T08:11:22.137Z,884.20
2018-04-15T08:12:22.127Z,884.21
2018-04-15T08:13:22.131Z,884.13
2018-04-15T08:14:22.104Z,884.19
2018-04-15T08:15:22.098Z,884.16
2018-04-15T08:16:22.084Z,884.13
2018-04-15T08:17:22.078Z,884.13
2018-04-15T08:18:22.063Z,884.16
2018-04-15T08:19:22.054Z,884.15
2018-04-15T08:20:22.047Z,884.17
2018-04-15T08:21:22.031Z,884.17
2018-04-15T08:22:22.016Z,884.13
2018-04-15T08:23:22.010Z,884.09
2018-04-15T08:24:22.003Z,884.03
2018-04-15T08:25:21.992Z,883.98
2018-04-15T08:26:21.988Z,883.94
2018-04-15T08:27:21.974Z,883.93
2018-04-15T08:28:21.956Z,884.00
2018-04-15T08:29:21.948Z,883.98
2018-04-15T08:30:21.940Z,884.05
2018-04-15T08:31:21.930Z,884.06
2018-04-15T08:32:21.932Z,884.08
2018-04-15T08:33:21.915Z,884.10
2018-04-15T08:34:21.898Z,884.06
2018-04-15T08:35:21.889Z,884.07
2018-04-15T08:36:21.879Z,884.09
2018-04-15T08:37:21.873Z,884.08
2018-04-15T08:38:21.861Z,884.05
2018-04-15T08:39:21.852Z,884.09
2018-04-15T08:40:21.837Z,884.09
2018-04-15T08:41:21.829Z,884.06
2018-04-15T08:42:21.817Z,884.08
2018-04-15T08:43:21.810Z,884.08
2018-04-15T08:44:21.804Z,884.06
2018-04-15T08:45:21.790Z,884.09
2018-04-15T08:46:21.779Z,884.10
2018-04-15T08:47:21.787Z,884.12
2018-04-15T08:48:21.765Z,884.10
2018-04-15T08:49:21.749Z,884.10
2018-04-15T08:50:21.741Z,884.08
2018-04-15T08:51:21.729Z,884.01
2018-04-15T08:52:21.721Z,883.97
2018-04-15T08:53:21.710Z,883.93
2018-04-15T08:54:21.700Z,883.94
2018-04-15T08:55:21.689Z,883.90
2018-04-15T08:56:21.682Z,883.87
2018-04-15T08:57:21.670Z,883.89
2018-04-15T08:58:21.658Z,883.90
2018-04-15T08:59:21.655Z,883.90
2018-04-15T09:00:21.638Z,883.94
2018-04-15T09:01:21.631Z,883.96
2018-04-15T09:02:21.616Z,883.99
2018-04-15T09:03:21.611Z,884.00
2018-04-15T09:04:21.608Z,884.00
2018-04-15T09:05:21.597Z,884.04
2018-04-15T09:06:21.582Z,884.10
2018-04-15T09:07:21.571Z,884.11
2018-04-15T09:08:21.564Z,884.04
2018-04-15T09:09:21.554Z,884.08
2018-04-15T09:10:21.541Z,884.01
2018-04-15T09:11:21.530Z,884.07
2018-04-15T09:12:21.520Z,884.07
2018-04-15T09:13:21.512Z,884.04
2018-04-15T09:14:21.501Z,884.09
2018-04-15T09:15:21.493Z,884.10
2018-04-15T09:16:21.488Z,884.11
2018-04-15T09:17:21.518Z,884.11
2018-04-15T09:18:21.462Z,884.08
2018-04-15T09:19:21.452Z,884.08
2018-04-15T09:20:21.443Z,884.09
2018-04-15T09:21:21.445Z,884.09
2018-04-15T09:22:21.426Z,884.07
2018-04-15T09:23:21.414Z,884.06
2018-04-15T09:24:21.412Z,884.08
2018-04-15T09:25:21.396Z,884.05
2018-04-15T09:26:21.404Z,884.00
2018-04-15T09:27:21.379Z,884.03
2018-04-15T09:28:21.367Z,884.02
2018-04-15T09:29:21.359Z,884.06
2018-04-15T09:30:21.350Z,884.08
2018-04-15T09:31:21.335Z,884.10
2018-04-15T09:32:21.329Z,884.09
2018-04-15T09:33:21.319Z,884.10
2018-04-15T09:34:21.308Z,884.07
2018-04-15T09:35:21.299Z,884.08
2018-04-15T09:36:21.292Z,884.09
2018-04-15T09:37:21.284Z,884.11
2018-04-15T09:38:21.273Z,884.12
2018-04-15T09:39:21.265Z,884.07
2018-04-15T09:40:21.256Z,884.08
2018-04-15T09:41:21.240Z,884.04
2018-04-15T09:42:21.234Z,884.05
2018-04-15T09:43:21.229Z,884.02
2018-04-15T09:44:21.217Z,884.03
2018-04-15T09:45:21.205Z,884.07
2018-04-15T09:46:21.229Z,884.08
2018-04-15T09:47:21.186Z,884.07
2018-04-15T09:48:21.174Z,883.99
2018-04-15T09:49:21.170Z,883.98
2018-04-15T09:50:21.161Z,884.06
2018-04-15T09:51:21.152Z,884.02
2018-04-15T09:52:21.143Z,884.05
2018-04-15T09:53:21.129Z,884.03
2018-04-15T09:54:21.118Z,884.03
2018-04-15T09:55:21.117Z,883.95
2018-04-15T09:56:21.102Z,884.02
2018-04-15T09:57:21.099Z,883.97
2018-04-15T09:58:21.084Z,884.04
2018-04-15T09:59:21.076Z,884.12
2018-04-15T10:00:21.063Z,883.91
2018-04-15T10:01:21.064Z,884.05
2018-04-15T10:02:21.047Z,883.93
2018-04-15T10:03:21.041Z,884.02
2018-04-15T10:04:21.033Z,883.96
2018-04-15T10:05:21.019Z,884.03
2018-04-15T10:06:21.006Z,883.98
2018-04-15T10:07:21.001Z,884.04
2018-04-15T10:08:20.990Z,884.01
2018-04-15T10:09:20.982Z,884.08
2018-04-15T10:10:20.973Z,884.10
2018-04-15T10:11:20.964Z,884.05
2018-04-15T10:12:20.954Z,884.00
2018-04-15T10:13:20.947Z,884.05
2018-04-15T10:14:20.932Z,884.00
2018-04-15T10:15:20.926Z,884.00
2018-04-15T10:16:20.918Z,884.00
2018-04-15T10:17:20.909Z,883.98
2018-04-15T10:18:20.900Z,884.01
2018-04-15T10:19:20.887Z,883.97
2018-04-15T10:20:20.882Z,883.91
2018-04-15T10:21:20.872Z,883.92
2018-04-15T10:22:20.862Z,883.93
2018-04-15T10:23:20.853Z,883.95
2018-04-15T10:24:20.849Z,883.92
2018-04-15T10:25:20.833Z,883.89
2018-04-15T10:26:20.829Z,883.92
2018-04-15T10:27:20.813Z,883.86
2018-04-15T10:28:20.805Z,883.86
2018-04-15T10:29:20.801Z,883.83
2018-04-15T10:30:20.790Z,883.79
2018-04-15T10:31:20.778Z,883.74
2018-04-15T10:32:20.766Z,883.70
2018-04-15T10:33:20.762Z,883.64
2018-04-15T10:34:20.748Z,883.66
2018-04-15T10:35:20.748Z,883.60
2018-04-15T10:36:20.730Z,883.60
2018-04-15T10:37:20.727Z,883.59
2018-04-15T10:38:20.722Z,883.55
2018-04-15T10:39:20.708Z,883.56
2018-04-15T10:40:20.700Z,883.58
2018-04-15T10:41:20.691Z,883.49
2018-04-15T10:42:20.678Z,883.58
2018-04-15T10:43:20.679Z,883.63
2018-04-15T10:44:20.662Z,883.60
2018-04-15T10:45:20.653Z,883.59
2018-04-15T10:46:20.642Z,883.60
2018-04-15T10:47:20.657Z,883.62
2018-04-15T10:48:20.633Z,883.70
2018-04-15T10:49:20.620Z,883.68
2018-04-15T10:50:20.606Z,883.61
2018-04-15T10:51:20.600Z,883.60
2018-04-15T10:52:20.586Z,883.61
2018-04-15T10:53:20.578Z,883.65
2018-04-15T10:54:20.573Z,883.66
2018-04-15T10:55:20.565Z,883.67
2018-04-15T10:56:20.555Z,883.64
2018-04-15T10:57:20.545Z,883.68
2018-04-15T10:58:20.538Z,883.68
2018-04-15T10:59:20.525Z,883.66
2018-04-15T11:00:20.516Z,883.58
2018-04-15T11:01:20.507Z,883.60
2018-04-15T11:02:20.497Z,883.46
2018-04-15T11:03:20.486Z,883.42
2018-04-15T11:04:20.482Z,883.42
2018-04-15T11:05:20.474Z,883.39
2018-04-15T11:06:20.460Z,883.32
2018-04-15T11:07:20.468Z,883.30
2018-04-15T11:08:20.446Z,883.27
2018-04-15T11:09:20.434Z,883.22
2018-04-15T11:10:20.419Z,883.21
2018-04-15T11:11:20.415Z,883.19
2018-04-15T11:12:20.407Z,883.20
2018-04-15T11:13:20.406Z,883.17
2018-04-15T11:14:20.391Z,883.18
2018-04-15T11:15:20.383Z,883.18
2018-04-15T11:16:20.375Z,883.08
2018-04-15T11:17:20.365Z,883.01
2018-04-15T11:18:20.358Z,883.01
2018-04-15T11:19:20.346Z,882.93
2018-04-15T11:20:20.337Z,882.90
2018-04-15T11:21:20.333Z,882.94
2018-04-15T11:22:20.322Z,882.84
2018-04-15T11:23:20.308Z,882.81
2018-04-15T11:24:20.311Z,882.82
2018-04-15T11:25:20.301Z,882.92
2018-04-15T11:26:20.289Z,882.80
2018-04-15T11:27:20.279Z,882.84
2018-04-15T11:28:20.277Z,882.85
2018-04-15T11:29:20.268Z,882.82
2018-04-15T11:30:20.254Z,882.86
2018-04-15T11:31:20.251Z,882.80
2018-04-15T11:32:20.244Z,882.78
2018-04-15T11:33:20.232Z,882.78
2018-04-15T11:34:20.227Z,882.81
2018-04-15T11:35:20.219Z,882.84
2018-04-15T11:36:20.207Z,882.77
2018-04-15T11:37:20.199Z,882.81
2018-04-15T11:38:20.205Z,882.74
2018-04-15T11:39:20.184Z,882.68
2018-04-15T11:40:20.178Z,882.68
2018-04-15T11:41:20.173Z,882.66
2018-04-15T11:42:20.164Z,882.65
2018-04-15T11:43:20.155Z,882.67
2018-04-15T11:44:20.146Z,882.69
2018-04-15T11:45:20.143Z,882.72
2018-04-15T11:46:20.131Z,882.71
2018-04-15T11:47:20.126Z,882.69
2018-04-15T11:48:20.112Z,882.62
2018-04-15T11:49:20.108Z,882.61
2018-04-15T11:50:20.099Z,882.62
2018-04-15T11:51:20.091Z,882.56
2018-04-15T11:52:20.089Z,882.53
2018-04-15T11:53:20.079Z,882.63
2018-04-15T11:54:20.075Z,882.61
2018-04-15T11:55:20.067Z,882.56
2018-04-15T11:56:20.063Z,882.57
2018-04-15T11:57:20.070Z,882.59
2018-04-15T11:58:20.040Z,882.54
2018-04-15T11:59:20.035Z,882.57
2018-04-15T12:00:20.028Z,882.53
2018-04-15T12:01:20.022Z,882.53
2018-04-15T12:02:20.125Z,882.50
2018-04-15T12:03:20.008Z,882.51
2018-04-15T12:04:20.002Z,882.47
2018-04-15T12:05:19.994Z,882.46
2018-04-15T12:06:19.989Z,882.47
2018-04-15T12:07:19.984Z,882.52
2018-04-15T12:08:19.978Z,882.52
2018-04-15T12:09:19.980Z,882.49
2018-04-15T12:10:19.962Z,882.49
2018-04-15T12:11:19.955Z,882.49
2018-04-15T12:12:19.952Z,882.48
2018-04-15T12:13:19.938Z,882.48
2018-04-15T12:14:19.933Z,882.47
2018-04-15T12:15:19.931Z,882.45
2018-04-15T12:16:19.922Z,882.53
2018-04-15T12:17:19.920Z,882.54
2018-04-15T12:18:19.910Z,882.50
2018-04-15T12:19:19.907Z,882.50
2018-04-15T12:20:19.897Z,882.48
2018-04-15T12:21:19.891Z,882.44
2018-04-15T12:22:19.905Z,882.39
2018-04-15T12:23:19.874Z,882.42
2018-04-15T12:24:19.874Z,882.40
2018-04-15T12:25:19.866Z,882.42
2018-04-15T12:26:19.867Z,882.38
2018-04-15T12:27:19.853Z,882.37
2018-04-15T12:28:19.847Z,882.39